createdAt,value
2018-08-13T00:00:43.512Z,697.33
2018-08-13T00:03:13.873Z,709.63
2018-08-13T00:05:44.155Z,689.67
2018-08-13T00:08:15.281Z,728.23
2018-08-13T00:10:45.436Z,691.50
2018-08-13T00:13:15.728Z,735.25
2018-08-13T00:15:45.980Z,703.12
2018-08-13T00:18:16.289Z,691.40
2018-08-13T00:20:47.055Z,734.85
2018-08-13T00:23:18.373Z,674.90
2018-08-13T00:25:48.673Z,647.63
2018-08-13T00:28:18.992Z,644.08
2018-08-13T00:30:49.409Z,685.08
2018-08-13T00:33:19.633Z,652.23
2018-08-13T00:35:49.919Z,691.02
2018-08-13T00:38:20.325Z,722.70
2018-08-13T00:40:50.496Z,647.30
2018-08-13T00:43:20.835Z,713.90
2018-08-13T00:45:51.458Z,635.70
2018-08-13T00:48:22.064Z,686.30
2018-08-13T00:50:52.293Z,674.42
2018-08-13T00:53:22.514Z,684.48
2018-08-13T00:55:52.787Z,645.08
2018-08-13T00:58:23.109Z,671.15
2018-08-13T01:00:53.459Z,661.90
2018-08-13T01:03:24.435Z,661.98
2018-08-13T01:05:54.755Z,637.80
2018-08-13T01:08:25.205Z,642.55
2018-08-13T01:10:55.534Z,637.95
2018-08-13T01:13:25.796Z,640.65
2018-08-13T01:15:56.765Z,627.75
2018-08-13T01:18:27.104Z,622.15
2018-08-13T01:20:57.402Z,581.67
2018-08-13T01:23:28.820Z,645.15
2018-08-13T01:25:58.969Z,670.42
2018-08-13T01:28:30.231Z,690.33
2018-08-13T01:31:00.833Z,651.90
2018-08-13T01:33:31.499Z,621.10
2018-08-13T01:36:01.917Z,689.95
2018-08-13T01:38:32.456Z,677.90
2018-08-13T01:41:02.670Z,638.37
2018-08-13T01:43:33.087Z,630.67
2018-08-13T01:46:03.472Z,638.22
2018-08-13T01:48:33.716Z,641.38
2018-08-13T01:51:04.079Z,622.85
2018-08-13T01:53:34.306Z,633.40
2018-08-13T01:56:04.911Z,619.55
2018-08-13T01:58:35.240Z,604.65
2018-08-13T02:01:05.883Z,631.33
2018-08-13T02:03:36.264Z,608.07
2018-08-13T02:06:06.527Z,679.25
2018-08-13T02:08:37.065Z,651.80
2018-08-13T02:11:07.403Z,632.52
2018-08-13T02:13:37.707Z,639.08
2018-08-13T02:16:07.829Z,631.70
2018-08-13T02:18:38.330Z,637.75
2018-08-13T02:21:08.483Z,665.83
2018-08-13T02:23:38.922Z,632.10
2018-08-13T02:26:09.336Z,664.85
2018-08-13T02:28:40.190Z,598.73
2018-08-13T02:31:10.512Z,654.30
2018-08-13T02:33:40.817Z,684.25
2018-08-13T02:36:11.873Z,662.62
2018-08-13T02:38:42.066Z,703.92
2018-08-13T02:41:12.518Z,684.37
2018-08-13T02:43:42.792Z,632.55
2018-08-13T02:46:14.495Z,631.92
2018-08-13T02:48:44.793Z,662.27
2018-08-13T02:51:15.110Z,698.10
2018-08-13T02:53:45.656Z,680.73
2018-08-13T02:56:15.895Z,674.15
2018-08-13T02:58:46.201Z,679.40
2018-08-13T03:01:16.435Z,627.28
2018-08-13T03:03:46.771Z,645.30
2018-08-13T03:06:17.042Z,625.38
2018-08-13T03:08:47.410Z,662.45
2018-08-13T03:11:17.849Z,663.52
2018-08-13T03:13:48.127Z,671.75
2018-08-13T03:16:18.589Z,692.63
2018-08-13T03:18:48.908Z,658.00
2018-08-13T03:21:19.783Z,649.25
2018-08-13T03:23:50.313Z,685.05
2018-08-13T03:26:20.695Z,653.48
2018-08-13T03:28:50.992Z,605.08
2018-08-13T03:31:21.423Z,600.05
2018-08-13T03:33:51.521Z,630.10
2018-08-13T03:36:21.870Z,621.10
2018-08-13T03:38:52.086Z,659.48
2018-08-13T03:41:22.324Z,634.13
2018-08-13T03:43:52.520Z,596.35
2018-08-13T03:46:22.855Z,604.00
2018-08-13T03:48:53.450Z,682.50
2018-08-13T03:51:24.172Z,661.50
2018-08-13T03:53:54.687Z,679.53
2018-08-13T03:56:25.048Z,690.80
2018-08-13T03:58:55.357Z,712.20
2018-08-13T04:01:25.789Z,695.25
2018-08-13T04:03:57.167Z,718.02
2018-08-13T04:06:27.432Z,741.55
2018-08-13T04:08:58.227Z,693.75
2018-08-13T04:11:28.502Z,712.17
2018-08-13T04:13:59.445Z,729.55
2018-08-13T04:16:30.324Z,711.20
2018-08-13T04:19:00.727Z,647.30
2018-08-13T04:21:31.331Z,718.70
2018-08-13T04:24:01.657Z,649.50
2018-08-13T04:26:32.211Z,686.67
2018-08-13T04:29:02.902Z,681.83
2018-08-13T04:31:33.242Z,683.92
2018-08-13T04:34:03.628Z,724.12
2018-08-13T04:36:33.975Z,696.63
2018-08-13T04:39:04.752Z,753.02
2018-08-13T04:41:35.366Z,710.87
2018-08-13T04:44:06.035Z,671.65
2018-08-13T04:46:36.720Z,642.80
2018-08-13T04:49:07.072Z,680.75
2018-08-13T04:51:37.372Z,658.67
2018-08-13T04:54:07.756Z,636.45
2018-08-13T04:56:38.073Z,669.40
2018-08-13T04:59:08.395Z,723.35
2018-08-13T05:01:38.684Z,706.42
2018-08-13T05:04:08.928Z,666.70
2018-08-13T05:06:39.521Z,692.65
2018-08-13T05:09:11.499Z,659.13
2018-08-13T05:11:42.714Z,622.25
2018-08-13T05:14:13.283Z,649.17
2018-08-13T05:16:43.881Z,651.98
2018-08-13T05:19:14.114Z,663.12
2018-08-13T05:21:44.619Z,710.37
2018-08-13T05:24:15.040Z,630.95
2018-08-13T05:26:45.212Z,655.58
2018-08-13T05:29:17.749Z,636.28
2018-08-13T05:31:48.898Z,681.87
2018-08-13T05:34:19.917Z,676.00
2018-08-13T05:36:50.243Z,650.20
2018-08-13T05:39:20.671Z,708.98
2018-08-13T05:41:51.067Z,647.58
2018-08-13T05:44:22.014Z,707.20
2018-08-13T05:46:54.728Z,710.87
2018-08-13T05:49:25.285Z,697.25
2018-08-13T05:51:55.759Z,714.63
2018-08-13T05:54:26.051Z,714.58
2018-08-13T05:56:56.395Z,687.95
2018-08-13T05:59:26.862Z,717.63
2018-08-13T06:01:57.244Z,688.98
2018-08-13T06:04:27.697Z,699.70
2018-08-13T06:06:57.940Z,706.67
2018-08-13T06:09:28.272Z,742.45
2018-08-13T06:11:58.627Z,734.98
2018-08-13T06:14:29.443Z,765.92
2018-08-13T06:16:59.687Z,722.05
2018-08-13T06:19:30.180Z,718.37
2018-08-13T06:22:01.443Z,795.17
2018-08-13T06:24:32.234Z,768.30
2018-08-13T06:27:02.772Z,791.88
2018-08-13T06:29:42.331Z,737.48
2018-08-13T06:32:22.576Z,785.90
2018-08-13T06:34:53.517Z,824.50
2018-08-13T06:37:24.005Z,827.58
2018-08-13T06:39:54.124Z,808.90
2018-08-13T06:42:25.065Z,809.65
2018-08-13T06:44:55.518Z,847.33
2018-08-13T06:47:25.760Z,867.30
2018-08-13T06:49:56.062Z,793.87
2018-08-13T06:52:27.481Z,805.03
2018-08-13T06:54:57.802Z,865.32
2018-08-13T06:57:28.170Z,856.30
2018-08-13T06:59:58.728Z,891.75
2018-08-13T07:02:29.558Z,824.53
2018-08-13T07:04:59.879Z,859.80
2018-08-13T07:07:30.585Z,822.05
2018-08-13T07:10:00.929Z,878.90
2018-08-13T07:12:31.331Z,831.90
2018-08-13T07:15:01.796Z,856.58
2018-08-13T07:17:32.232Z,876.48
2018-08-13T07:20:03.271Z,847.10
2018-08-13T07:22:33.650Z,876.90
2018-08-13T07:25:04.258Z,883.23
2018-08-13T07:27:35.048Z,849.05
2018-08-13T07:30:06.779Z,873.83
2018-08-13T07:32:37.464Z,875.42
2018-08-13T07:35:10.838Z,837.57
2018-08-13T07:37:41.608Z,933.20
2018-08-13T07:40:17.926Z,865.25
2018-08-13T07:42:48.046Z,892.98
2018-08-13T07:45:18.298Z,879.42
2018-08-13T07:47:48.486Z,853.25
2018-08-13T07:50:22.057Z,869.63
2018-08-13T07:52:52.408Z,849.95
2018-08-13T07:55:23.446Z,906.85
2018-08-13T07:57:54.363Z,932.30
2018-08-13T08:00:27.515Z,891.45
2018-08-13T08:02:58.238Z,870.35
2018-08-13T08:05:28.510Z,902.55
2018-08-13T08:07:59.011Z,865.72
2018-08-13T08:10:30.051Z,886.65
2018-08-13T08:13:00.240Z,848.45
2018-08-13T08:15:32.324Z,927.13
2018-08-13T08:18:03.993Z,901.80
2018-08-13T08:20:34.583Z,924.90
2018-08-13T08:23:06.136Z,863.12
2018-08-13T08:25:36.677Z,917.58
2018-08-13T08:28:08.124Z,961.05
2018-08-13T08:30:38.562Z,947.50
2018-08-13T08:33:10.904Z,923.93
2018-08-13T08:35:41.274Z,936.20
2018-08-13T08:38:12.701Z,889.17
2018-08-13T08:40:43.522Z,932.15
2018-08-13T08:43:13.840Z,935.85
2018-08-13T08:45:44.561Z,915.10
2018-08-13T08:48:15.103Z,961.67
2018-08-13T08:50:45.340Z,959.50
2018-08-13T08:53:15.765Z,935.92
2018-08-13T08:55:46.068Z,979.57
2018-08-13T08:58:16.138Z,943.20
2018-08-13T09:00:46.508Z,901.48
2018-08-13T09:03:16.721Z,978.05
2018-08-13T09:05:47.720Z,980.87
2018-08-13T09:08:17.952Z,991.32
2018-08-13T09:10:48.214Z,964.40
2018-08-13T09:13:18.359Z,959.30
2018-08-13T09:15:48.812Z,949.80
2018-08-13T09:18:29.540Z,957.58
2018-08-13T09:21:10.613Z,753.77
2018-08-13T09:24:53.253Z,718.90
2018-08-13T09:27:34.162Z,679.20
2018-08-13T09:30:16.328Z,691.65
2018-08-13T09:34:01.681Z,683.17
2018-08-13T09:36:32.095Z,733.23
2018-08-13T09:39:02.534Z,759.13
2018-08-13T09:41:32.922Z,735.00
2018-08-13T09:44:03.172Z,795.88
2018-08-13T09:46:33.594Z,826.60
2018-08-13T09:49:04.334Z,717.37
2018-08-13T09:51:34.663Z,774.52
2018-08-13T09:54:05.684Z,653.27
2018-08-13T09:56:36.011Z,703.67
2018-08-13T09:59:06.244Z,720.38
2018-08-13T10:01:36.811Z,752.28
2018-08-13T10:04:07.172Z,724.42
2018-08-13T10:06:37.409Z,764.85
2018-08-13T10:09:08.489Z,713.30
2018-08-13T10:11:38.805Z,727.35
2018-08-13T10:14:09.577Z,798.40
2018-08-13T10:16:39.750Z,786.35
2018-08-13T10:19:10.243Z,707.15
2018-08-13T10:21:40.594Z,750.70
2018-08-13T10:24:10.861Z,746.45
2018-08-13T10:26:41.221Z,840.32
2018-08-13T10:29:11.807Z,857.40
2018-08-13T10:31:41.994Z,877.15
2018-08-13T10:34:12.216Z,836.95
2018-08-13T10:36:42.608Z,880.03
2018-08-13T10:39:12.812Z,858.80
2018-08-13T10:41:43.135Z,840.35
2018-08-13T10:44:13.452Z,812.52
2018-08-13T10:46:43.707Z,839.38
2018-08-13T10:49:13.922Z,896.78
2018-08-13T10:51:44.457Z,874.90
2018-08-13T10:54:14.836Z,855.98
2018-08-13T10:56:45.575Z,891.15
2018-08-13T10:59:15.799Z,912.97
2018-08-13T11:01:46.173Z,874.45
2018-08-13T11:04:16.453Z,874.23
2018-08-13T11:06:46.589Z,855.60
2018-08-13T11:09:16.776Z,822.67
2018-08-13T11:11:47.179Z,879.72
2018-08-13T11:14:17.877Z,871.08
2018-08-13T11:16:48.040Z,799.50
2018-08-13T11:19:18.412Z,800.38
2018-08-13T11:21:48.720Z,862.90
2018-08-13T11:24:19.296Z,819.80
2018-08-13T11:26:49.523Z,906.05
2018-08-13T11:29:19.720Z,878.95
2018-08-13T11:31:50.080Z,835.17
2018-08-13T11:34:20.339Z,827.25
2018-08-13T11:36:50.387Z,818.73
2018-08-13T11:39:20.540Z,840.23
2018-08-13T11:41:50.735Z,831.40
2018-08-13T11:44:21.189Z,810.92
2018-08-13T11:46:51.406Z,848.30
2018-08-13T11:49:21.607Z,817.35
2018-08-13T11:51:51.979Z,838.87
2018-08-13T11:54:22.297Z,838.33
2018-08-13T11:56:52.711Z,811.25
2018-08-13T11:59:22.869Z,766.45
2018-08-13T12:01:53.213Z,818.15
2018-08-13T12:04:23.493Z,819.45
2018-08-13T12:06:53.897Z,853.52
2018-08-13T12:09:24.107Z,816.30
2018-08-13T12:11:54.670Z,802.62
2018-08-13T12:14:25.052Z,851.55
2018-08-13T12:16:55.407Z,802.45
2018-08-13T12:19:25.539Z,859.67
2018-08-13T12:21:55.763Z,838.03
2018-08-13T12:24:26.076Z,835.92
2018-08-13T12:26:56.406Z,815.12
2018-08-13T12:29:26.922Z,772.55
2018-08-13T12:31:57.309Z,757.85
2018-08-13T12:34:27.661Z,792.58
2018-08-13T12:37:02.807Z,817.77
2018-08-13T12:39:34.926Z,804.37
2018-08-13T12:42:06.611Z,758.53
2018-08-13T12:44:37.166Z,737.77
2018-08-13T12:47:08.590Z,735.58
2018-08-13T12:49:39.570Z,746.90
2018-08-13T12:52:09.978Z,779.87
2018-08-13T12:54:40.312Z,725.38
2018-08-13T12:57:10.725Z,703.45
2018-08-13T12:59:41.093Z,673.05
2018-08-13T13:02:11.479Z,723.35
2018-08-13T13:04:41.632Z,708.50
2018-08-13T13:07:11.919Z,676.87
2018-08-13T13:09:42.143Z,662.35
2018-08-13T13:12:12.379Z,627.40
2018-08-13T13:14:42.626Z,611.77
2018-08-13T13:17:12.787Z,657.38
2018-08-13T13:19:43.162Z,716.05
2018-08-13T13:22:13.411Z,683.75
2018-08-13T13:24:43.981Z,673.70
2018-08-13T13:27:14.336Z,658.98
2018-08-13T13:29:44.400Z,642.92
2018-08-13T13:32:14.732Z,672.63
2018-08-13T13:34:45.109Z,664.37
2018-08-13T13:37:15.520Z,603.62
2018-08-13T13:39:45.928Z,658.35
2018-08-13T13:42:16.208Z,638.35
2018-08-13T13:44:46.413Z,624.88
2018-08-13T13:47:16.701Z,621.12
2018-08-13T13:49:46.880Z,620.70
2018-08-13T13:52:17.084Z,626.52
2018-08-13T13:54:47.599Z,568.08
2018-08-13T13:57:18.100Z,605.63
2018-08-13T13:59:48.250Z,623.23
2018-08-13T14:02:18.531Z,614.25
2018-08-13T14:04:48.649Z,654.50
2018-08-13T14:07:18.954Z,716.88
2018-08-13T14:09:49.056Z,656.15
2018-08-13T14:12:19.184Z,616.67
2018-08-13T14:14:49.335Z,623.02
2018-08-13T14:17:19.693Z,652.23
2018-08-13T14:19:49.748Z,675.55
2018-08-13T14:22:19.875Z,675.55
2018-08-13T14:24:49.941Z,685.67
2018-08-13T14:27:20.301Z,651.67
2018-08-13T14:29:50.725Z,643.70
2018-08-13T14:32:24.412Z,650.83
2018-08-13T14:34:58.786Z,668.13
2018-08-13T14:37:32.109Z,642.42
2018-08-13T14:40:09.676Z,649.38
2018-08-13T14:42:39.967Z,668.92
2018-08-13T14:45:12.231Z,690.65
2018-08-13T14:47:43.927Z,650.90
2018-08-13T14:50:16.025Z,646.87
2018-08-13T14:52:47.508Z,643.15
2018-08-13T14:55:20.444Z,651.80
2018-08-13T14:57:51.459Z,646.53
2018-08-13T15:00:35.521Z,660.10
2018-08-13T15:03:07.846Z,666.62
2018-08-13T15:05:39.129Z,686.02
2018-08-13T15:08:11.339Z,678.10
2018-08-13T15:10:41.484Z,687.98
2018-08-13T15:13:12.623Z,664.55
2018-08-13T15:15:42.867Z,649.75
2018-08-13T15:18:13.919Z,678.20
2018-08-13T15:20:44.384Z,727.83
2018-08-13T15:23:14.506Z,669.97
2018-08-13T15:25:45.540Z,671.35
2018-08-13T15:28:15.691Z,670.33
2018-08-13T15:30:45.827Z,684.73
2018-08-13T15:33:16.211Z,662.40
2018-08-13T15:35:46.359Z,622.75
2018-08-13T15:38:16.532Z,616.98
2018-08-13T15:41:03.398Z,664.73
2018-08-13T15:43:36.184Z,632.02
2018-08-13T15:46:06.327Z,662.08
2018-08-13T15:48:38.328Z,623.75
2018-08-13T15:51:08.924Z,625.50
2018-08-13T15:53:39.611Z,620.65
2018-08-13T15:56:09.798Z,579.62
2018-08-13T15:58:40.009Z,629.70
2018-08-13T16:01:10.407Z,627.20
2018-08-13T16:03:40.615Z,626.58
2018-08-13T16:06:11.104Z,628.90
2018-08-13T16:08:41.313Z,627.73
2018-08-13T16:11:11.510Z,625.00
2018-08-13T16:13:41.703Z,609.05
2018-08-13T16:16:12.057Z,604.10
2018-08-13T16:18:42.287Z,606.95
2018-08-13T16:21:12.433Z,596.83
2018-08-13T16:23:43.351Z,617.83
2018-08-13T16:26:13.602Z,607.92
2018-08-13T16:28:44.121Z,619.67
2018-08-13T16:31:14.759Z,591.90
2018-08-13T16:33:45.055Z,597.73
2018-08-13T16:36:15.272Z,665.60
2018-08-13T16:38:45.736Z,640.33
2018-08-13T16:41:24.625Z,643.75
2018-08-13T16:43:58.342Z,600.92
2018-08-13T16:46:29.355Z,650.15
2018-08-13T16:48:59.767Z,612.45
2018-08-13T16:51:30.114Z,609.17
2018-08-13T16:54:00.874Z,640.70
2018-08-13T16:56:31.656Z,631.27
2018-08-13T16:59:02.491Z,647.00
2018-08-13T17:01:34.243Z,642.10
2018-08-13T17:04:04.567Z,675.27
2018-08-13T17:06:35.192Z,624.62
2018-08-13T17:09:07.444Z,636.40
2018-08-13T17:11:37.892Z,661.65
2018-08-13T17:14:12.065Z,630.83
2018-08-13T17:16:44.009Z,621.92
2018-08-13T17:19:14.474Z,621.72
2018-08-13T17:21:44.700Z,640.58
2018-08-13T17:24:15.663Z,659.27
2018-08-13T17:26:47.322Z,629.38
2018-08-13T17:29:17.836Z,670.70
2018-08-13T17:31:48.073Z,629.85
2018-08-13T17:34:18.314Z,675.75
2018-08-13T17:36:48.776Z,595.80
2018-08-13T17:39:19.075Z,641.45
2018-08-13T17:41:49.419Z,635.85
2018-08-13T17:44:19.783Z,624.30
2018-08-13T17:46:50.101Z,628.40
2018-08-13T17:49:20.524Z,606.78
2018-08-13T17:51:50.762Z,619.80
2018-08-13T17:54:20.955Z,616.42
2018-08-13T17:56:51.296Z,594.80
2018-08-13T17:59:21.790Z,606.80
2018-08-13T18:01:52.397Z,611.33
2018-08-13T18:04:23.088Z,581.73
2018-08-13T18:06:53.279Z,637.33
2018-08-13T18:09:23.634Z,586.10
2018-08-13T18:11:53.726Z,607.83
2018-08-13T18:14:24.223Z,616.02
2018-08-13T18:16:54.571Z,592.37
2018-08-13T18:19:25.908Z,604.30
2018-08-13T18:21:56.273Z,651.70
2018-08-13T18:24:26.300Z,633.33
2018-08-13T18:26:56.415Z,612.80
2018-08-13T18:29:26.703Z,597.23
2018-08-13T18:31:56.835Z,607.40
2018-08-13T18:34:27.311Z,642.40
2018-08-13T18:36:59.631Z,662.50
2018-08-13T18:39:29.939Z,619.47
2018-08-13T18:42:00.753Z,596.20
2018-08-13T18:44:37.033Z,637.23
2018-08-13T18:47:08.173Z,655.05
2018-08-13T18:49:38.754Z,646.87
2018-08-13T18:52:09.305Z,598.95
2018-08-13T18:54:39.579Z,643.83
2018-08-13T18:57:09.813Z,674.90
2018-08-13T18:59:40.318Z,665.33
2018-08-13T19:02:10.768Z,620.90
2018-08-13T19:04:41.026Z,672.15
2018-08-13T19:07:11.459Z,632.70
2018-08-13T19:09:42.264Z,628.40
2018-08-13T19:12:12.480Z,642.20
2018-08-13T19:14:42.509Z,633.15
2018-08-13T19:17:13.400Z,595.05
2018-08-13T19:19:43.606Z,685.25
2018-08-13T19:22:13.951Z,672.10
2018-08-13T19:24:46.007Z,654.87
2018-08-13T19:27:16.382Z,604.60
2018-08-13T19:29:46.940Z,630.95
2018-08-13T19:32:17.535Z,621.03
2018-08-13T19:34:48.252Z,553.10
2018-08-13T19:37:18.616Z,550.70
2018-08-13T19:39:49.285Z,568.27
2018-08-13T19:42:20.014Z,618.27
2018-08-13T19:44:50.632Z,586.40
2018-08-13T19:47:21.239Z,596.53
2018-08-13T19:49:52.945Z,569.60
2018-08-13T19:52:23.320Z,592.35
2018-08-13T19:55:01.217Z,601.02
2018-08-13T19:57:31.482Z,600.62
2018-08-13T20:00:06.322Z,592.85
2018-08-13T20:02:36.648Z,583.33
2018-08-13T20:05:06.967Z,545.08
2018-08-13T20:07:37.209Z,637.85
2018-08-13T20:10:12.253Z,612.12
2018-08-13T20:12:43.218Z,565.33
2018-08-13T20:15:13.779Z,560.05
2018-08-13T20:17:44.303Z,591.67
2018-08-13T20:20:21.108Z,561.88
2018-08-13T20:22:51.495Z,523.88
2018-08-13T20:25:22.083Z,620.57
2018-08-13T20:27:52.730Z,581.67
2018-08-13T20:30:24.468Z,533.45
2018-08-13T20:32:55.323Z,581.42
2018-08-13T20:35:27.623Z,601.42
2018-08-13T20:37:59.052Z,568.17
2018-08-13T20:40:31.035Z,626.20
2018-08-13T20:43:04.621Z,579.02
2018-08-13T20:45:34.968Z,512.45
2018-08-13T20:48:08.624Z,584.00
2018-08-13T20:50:39.163Z,584.55
2018-08-13T20:53:10.478Z,547.10
2018-08-13T20:55:40.663Z,597.73
2018-08-13T20:58:12.647Z,602.97
2018-08-13T21:00:42.723Z,595.85
2018-08-13T21:03:12.747Z,588.70
2018-08-13T21:05:42.902Z,606.08
2018-08-13T21:08:12.883Z,600.17
2018-08-13T21:10:43.590Z,532.17
2018-08-13T21:13:13.671Z,532.67
2018-08-13T21:15:43.809Z,553.30
2018-08-13T21:18:14.259Z,564.30
2018-08-13T21:20:44.728Z,581.50
2018-08-13T21:23:14.928Z,556.25
2018-08-13T21:25:45.129Z,575.83
2018-08-13T21:28:15.184Z,567.45
2018-08-13T21:30:45.391Z,568.05
2018-08-13T21:33:15.836Z,562.80
2018-08-13T21:35:46.120Z,571.05
2018-08-13T21:38:16.287Z,576.08
2018-08-13T21:40:46.392Z,570.00
2018-08-13T21:43:16.498Z,575.65
2018-08-13T21:45:46.715Z,584.45
2018-08-13T21:48:16.921Z,582.75
2018-08-13T21:50:47.306Z,563.67
2018-08-13T21:53:17.488Z,618.87
2018-08-13T21:55:47.686Z,556.85
2018-08-13T21:58:17.873Z,553.30
2018-08-13T22:00:53.357Z,585.15
2018-08-13T22:03:23.467Z,612.58
2018-08-13T22:05:53.724Z,618.33
2018-08-13T22:08:23.935Z,525.22
2018-08-13T22:10:54.074Z,570.33
2018-08-13T22:13:24.391Z,581.20
2018-08-13T22:15:54.726Z,544.83
2018-08-13T22:18:25.107Z,534.65
2018-08-13T22:20:55.445Z,561.10
2018-08-13T22:23:25.523Z,553.30
2018-08-13T22:25:55.687Z,534.63
2018-08-13T22:28:25.960Z,526.75
2018-08-13T22:30:56.283Z,564.10
2018-08-13T22:33:26.546Z,524.65
2018-08-13T22:35:56.668Z,532.85
2018-08-13T22:38:26.936Z,552.90
2018-08-13T22:40:57.503Z,555.03
2018-08-13T22:43:27.628Z,502.80
2018-08-13T22:45:57.882Z,553.60
2018-08-13T22:48:28.104Z,548.35
2018-08-13T22:50:58.350Z,538.83
2018-08-13T22:53:28.911Z,529.77
2018-08-13T22:55:59.311Z,536.38
2018-08-13T22:58:29.527Z,525.48
2018-08-13T23:00:59.848Z,539.73
2018-08-13T23:03:30.900Z,492.90
2018-08-13T23:06:01.828Z,513.17
2018-08-13T23:08:32.214Z,548.73
2018-08-13T23:11:02.644Z,585.45
2018-08-13T23:13:32.829Z,582.85
2018-08-13T23:16:03.562Z,583.45
2018-08-13T23:18:36.319Z,593.52
2018-08-13T23:21:06.605Z,606.50
2018-08-13T23:23:36.911Z,563.98
2018-08-13T23:26:07.492Z,538.90
2018-08-13T23:28:37.507Z,599.23
2018-08-13T23:31:07.714Z,547.98
2018-08-13T23:33:38.055Z,595.50
2018-08-13T23:36:08.253Z,587.75
2018-08-13T23:38:38.497Z,569.97
2018-08-13T23:41:08.712Z,581.10
2018-08-13T23:43:39.015Z,533.77
2018-08-13T23:46:09.224Z,554.05
2018-08-13T23:48:39.827Z,599.83
2018-08-13T23:51:10.481Z,593.67
2018-08-13T23:53:40.535Z,569.20
2018-08-13T23:56:10.941Z,586.62
2018-08-13T23:58:50.362Z,546.55
